Tropical Cyclones
[Index]
Main Index Home Page Stock Weather Photos Extreme Storms Discussion Storm News and Storm Chasing Reports Tropical Cyclones / Hurricanes / Typhoons Weather Data and Links Wild Fires / Bushfires Weather Observation Techniques Weather Picture Catalogue Tornado Pictures and Reports Stock Video Footage and DVDs for sale
Season 2017-2018 Tropical Cyclone CEBILE Track Map
Season 2017-2018 Summaries (Operational Data): [AU] [SIO] [SPAC] [SH]
<<- Previous TC | 2017-2018 Season | Next TC ->>

click for intensity scale information  Lat/long Grid: Show Hide

 Date Labels: Show Hide

Operational Tropical Cyclone Data : JTWC Advisories

Name: CEBILE
Number: 1807

23 Jan 2018 12:00 UTC to 10 Feb 2018 00:00 UTC

    date/time    lat    long     hPa   cat  kts
2018-01-23 12   10.6    78.2    1004         15          
2018-01-23 18   10.2    78.0    1004         15          
2018-01-24 00    9.9    78.4    1004         15          
2018-01-24 06    9.9    78.8    1010         15          
2018-01-24 12    9.3    79.2    1010         15          
2018-01-24 18    9.3    79.5    1010         15          
2018-01-25 00    9.3    79.8    1007         20          
2018-01-25 06    9.3    80.1    1003         25          
2018-01-25 12    9.6    80.7    1000         30          
2018-01-25 18    9.8    81.4    1000         30          
2018-01-26 00   10.2    82.1    1002         30          
2018-01-26 06   10.3    82.6    1002         30          
2018-01-26 12   10.3    83.1    1000         30          
2018-01-26 18   10.5    84.3    1002         30          
2018-01-27 00   10.7    84.7    1002         30          
2018-01-27 06   11.0    84.8    1000    1    35          
2018-01-27 12   11.4    84.8     999    1    35          
2018-01-27 18   11.8    84.8     994    1    45          
2018-01-28 00   12.6    84.6     974    3    65          
2018-01-28 06   13.3    84.0     967    3    75          
2018-01-28 12   13.8    83.2     952    4    95          
2018-01-28 18   14.3    82.7     945    5   115          
2018-01-29 00   14.8    82.1     949    5   110          
2018-01-29 06   15.2    81.5     949    5   110          
2018-01-29 12   15.5    81.1     949    5   110          
2018-01-29 18   15.7    80.8     959    4   100          
2018-01-30 00   16.0    80.4     955    4   100          
2018-01-30 06   16.0    79.8     959    4   100          
2018-01-30 12   16.0    79.3     957    4   100          
2018-01-30 18   15.9    78.8     950    5   110          
2018-01-31 00   15.9    78.3     938    5   120          
2018-01-31 06   15.8    77.6     943    5   115          
2018-01-31 12   15.6    77.3     942    5   115          
2018-01-31 18   15.5    77.0     947    5   110          
2018-02-01 00   15.4    76.7     943    5   115          
2018-02-01 06   15.5    76.3     947    5   115          
2018-02-01 09   15.6    76.2     937    5   115          
2018-02-01 12   15.7    76.1     944    5   115          
2018-02-01 18   16.0    75.9     946    5   110          
2018-02-02 00   16.5    75.7     936    5   120          
2018-02-02 06   17.0    75.6     937    5   115          
2018-02-02 12   17.4    75.7     943    5   110          
2018-02-02 18   17.8    76.0     946    5   110          
2018-02-03 00   18.1    76.4     952    4   105          
2018-02-03 06   18.4    77.1     962    4    95          
2018-02-03 12   18.7    77.8     967    3    85          
2018-02-03 18   19.1    78.6     976    3    70          
2018-02-04 00   19.6    79.3     976    3    70          
2018-02-04 06   20.3    79.8     983    3    65          
2018-02-04 12   20.9    80.2     986    2    60          
2018-02-04 18   21.6    80.7     989    2    55          
2018-02-05 00   22.2    81.3     989    2    55          
2018-02-05 06   23.0    81.4     993    2    50          
2018-02-05 12   23.9    81.6     996    1    45          
2018-02-05 18   24.5    81.7     996    1    45          
2018-02-06 00   25.1    81.8     999    1    40          
2018-02-06 06   25.6    81.8     998    1    40          
2018-02-06 12   26.1    81.9     997    1    40          
2018-02-06 18   26.5    81.8     985    2    50          
2018-02-07 00   26.7    81.5     992    2    50          
2018-02-07 06   26.8    81.2     985    2    50          
2018-02-07 12   26.7    80.5     989    1    45          
2018-02-07 18   26.6    80.1     999    1    45          
2018-02-08 00   26.3    79.5    1001    1    40          
2018-02-08 06   26.1    78.6    1002    1    40          
2018-02-08 12   26.2    77.2    1004    1    35          
2018-02-08 18   26.7    75.3     996    1    35          
2018-02-09 00   27.2    73.9    1000         30          
2018-02-09 06   27.8    72.4    1000         30          
2018-02-09 12   29.2    71.7    1000         30          
2018-02-09 18   30.6    70.9    1004         25          
2018-02-10 00   31.8    70.3    1004         25          
Winds are 10-min average.

Tropical cyclone tracks developed by Michael Bath using operational warnings and advisories and Google Maps.


[Australian Severe Weather index] [Copyright Notice] [Email Contacts] [Search This Site] [Privacy Policy]
Document: tropical_cyclone_cebile.htm Updated: 11 March 2020